Terminal Aerodrome Forecast
Issued by NWS Shreveport, LA

Home | Current Version | Previous Version | Text Only | Print | Product List | Glossary On
Versions: 1 2 3 4 5 6 7 8 9 10 11 12 13 14 15 16 17 18 19 20 21 22 23 24 25 26 27 28 29 30 31 32 33 34 35 36 37 38
000
FTUS44 KSHV 240521
TAFMLU
TAF
KMLU 240521Z 2406/2506 34012KT P6SM OVC015
     FM241200 01011KT P6SM OVC015
     FM242100 01008KT P6SM OVC025
     FM250100 03004KT P6SM OVC025=

USA.gov is the U.S. government's official web portal to all federal, state and local government web resources and services.